sensor_id;sensor_type;location;lat;lon;timestamp;P1;durP1;ratioP1;P2;durP2;ratioP2
19095;SDS011;9680;52.520;13.332;2023-08-01T00:00:09;7.93;;;3.22;;
19095;SDS011;9680;52.520;13.332;2023-08-01T00:02:36;12.85;;;3.30;;
19095;SDS011;9680;52.520;13.332;2023-08-01T00:05:04;5.10;;;3.20;;
19095;SDS011;9680;52.520;13.332;2023-08-01T00:07:31;7.13;;;3.20;;
19095;SDS011;9680;52.520;13.332;2023-08-01T00:09:58;7.07;;;3.10;;
19095;SDS011;9680;52.520;13.332;2023-08-01T00:12:24;8.00;;;3.40;;
19095;SDS011;9680;52.520;13.332;2023-08-01T00:14:51;6.65;;;3.50;;
19095;SDS011;9680;52.520;13.332;2023-08-01T00:17:19;10.95;;;3.30;;
19095;SDS011;9680;52.520;13.332;2023-08-01T00:19:46;5.15;;;3.25;;
19095;SDS011;9680;52.520;13.332;2023-08-01T00:22:13;5.03;;;3.28;;
19095;SDS011;9680;52.520;13.332;2023-08-01T00:24:40;6.88;;;2.85;;
19095;SDS011;9680;52.520;13.332;2023-08-01T00:27:06;5.82;;;3.10;;
19095;SDS011;9680;52.520;13.332;2023-08-01T00:29:35;6.25;;;2.97;;
19095;SDS011;9680;52.520;13.332;2023-08-01T00:32:03;5.70;;;3.30;;
19095;SDS011;9680;52.520;13.332;2023-08-01T00:34:31;7.05;;;2.80;;
19095;SDS011;9680;52.520;13.332;2023-08-01T00:36:58;5.47;;;2.85;;
19095;SDS011;9680;52.520;13.332;2023-08-01T00:39:25;7.03;;;2.97;;
19095;SDS011;9680;52.520;13.332;2023-08-01T00:41:51;5.22;;;2.90;;
19095;SDS011;9680;52.520;13.332;2023-08-01T00:44:18;6.60;;;2.55;;
19095;SDS011;9680;52.520;13.332;2023-08-01T00:46:45;6.10;;;2.60;;
19095;SDS011;9680;52.520;13.332;2023-08-01T00:49:12;8.13;;;2.58;;
19095;SDS011;9680;52.520;13.332;2023-08-01T00:51:41;6.10;;;2.65;;
19095;SDS011;9680;52.520;13.332;2023-08-01T00:54:07;4.55;;;2.25;;
19095;SDS011;9680;52.520;13.332;2023-08-01T00:56:35;4.78;;;2.10;;
19095;SDS011;9680;52.520;13.332;2023-08-01T00:59:02;5.40;;;2.55;;
19095;SDS011;9680;52.520;13.332;2023-08-01T01:01:29;5.35;;;2.22;;
19095;SDS011;9680;52.520;13.332;2023-08-01T01:03:58;8.73;;;2.63;;
19095;SDS011;9680;52.520;13.332;2023-08-01T01:06:27;5.47;;;2.50;;
19095;SDS011;9680;52.520;13.332;2023-08-01T01:08:59;3.83;;;2.25;;
19095;SDS011;9680;52.520;13.332;2023-08-01T01:11:26;5.55;;;2.75;;
19095;SDS011;9680;52.520;13.332;2023-08-01T01:13:53;7.45;;;2.53;;
19095;SDS011;9680;52.520;13.332;2023-08-01T01:16:20;3.45;;;2.08;;
19095;SDS011;9680;52.520;13.332;2023-08-01T01:18:47;5.57;;;2.40;;
19095;SDS011;9680;52.520;13.332;2023-08-01T01:21:15;3.95;;;2.30;;
19095;SDS011;9680;52.520;13.332;2023-08-01T01:23:42;5.18;;;2.30;;
19095;SDS011;9680;52.520;13.332;2023-08-01T01:26:10;4.03;;;2.22;;
19095;SDS011;9680;52.520;13.332;2023-08-01T01:28:37;4.45;;;2.65;;
19095;SDS011;9680;52.520;13.332;2023-08-01T01:31:04;5.10;;;2.45;;
19095;SDS011;9680;52.520;13.332;2023-08-01T01:33:32;4.60;;;2.53;;
19095;SDS011;9680;52.520;13.332;2023-08-01T01:36:00;7.25;;;2.67;;
19095;SDS011;9680;52.520;13.332;2023-08-01T01:38:28;5.63;;;2.45;;
19095;SDS011;9680;52.520;13.332;2023-08-01T01:40:55;5.97;;;2.78;;
19095;SDS011;9680;52.520;13.332;2023-08-01T01:43:22;9.02;;;3.17;;
19095;SDS011;9680;52.520;13.332;2023-08-01T01:45:48;6.03;;;3.10;;
19095;SDS011;9680;52.520;13.332;2023-08-01T01:48:15;8.20;;;2.85;;
19095;SDS011;9680;52.520;13.332;2023-08-01T01:50:42;5.25;;;2.50;;
19095;SDS011;9680;52.520;13.332;2023-08-01T01:53:09;4.75;;;2.85;;
19095;SDS011;9680;52.520;13.332;2023-08-01T01:55:37;6.68;;;2.70;;
19095;SDS011;9680;52.520;13.332;2023-08-01T01:58:05;5.60;;;3.30;;
19095;SDS011;9680;52.520;13.332;2023-08-01T02:00:32;6.03;;;2.90;;
19095;SDS011;9680;52.520;13.332;2023-08-01T02:02:59;6.35;;;2.95;;
19095;SDS011;9680;52.520;13.332;2023-08-01T02:05:28;7.20;;;2.90;;
19095;SDS011;9680;52.520;13.332;2023-08-01T02:07:54;7.07;;;3.03;;
19095;SDS011;9680;52.520;13.332;2023-08-01T02:10:21;6.68;;;3.00;;
19095;SDS011;9680;52.520;13.332;2023-08-01T02:12:49;5.93;;;2.85;;
19095;SDS011;9680;52.520;13.332;2023-08-01T02:15:16;5.78;;;3.05;;
19095;SDS011;9680;52.520;13.332;2023-08-01T02:17:43;6.80;;;3.17;;
19095;SDS011;9680;52.520;13.332;2023-08-01T02:20:13;9.88;;;3.05;;
19095;SDS011;9680;52.520;13.332;2023-08-01T02:22:40;5.95;;;2.88;;
19095;SDS011;9680;52.520;13.332;2023-08-01T02:25:07;7.15;;;3.00;;
19095;SDS011;9680;52.520;13.332;2023-08-01T02:27:34;5.70;;;2.80;;
19095;SDS011;9680;52.520;13.332;2023-08-01T02:30:02;7.80;;;3.15;;
19095;SDS011;9680;52.520;13.332;2023-08-01T02:32:30;7.32;;;3.08;;
19095;SDS011;9680;52.520;13.332;2023-08-01T02:34:58;5.43;;;3.13;;
19095;SDS011;9680;52.520;13.332;2023-08-01T02:37:24;7.57;;;3.20;;
19095;SDS011;9680;52.520;13.332;2023-08-01T02:39:51;5.75;;;3.00;;
19095;SDS011;9680;52.520;13.332;2023-08-01T02:42:18;4.63;;;3.00;;
19095;SDS011;9680;52.520;13.332;2023-08-01T02:44:45;7.18;;;2.67;;
19095;SDS011;9680;52.520;13.332;2023-08-01T02:47:13;6.55;;;3.35;;
19095;SDS011;9680;52.520;13.332;2023-08-01T02:49:40;6.10;;;3.13;;
19095;SDS011;9680;52.520;13.332;2023-08-01T02:52:07;5.85;;;3.08;;
19095;SDS011;9680;52.520;13.332;2023-08-01T02:54:35;6.25;;;3.05;;
19095;SDS011;9680;52.520;13.332;2023-08-01T02:57:02;8.15;;;3.05;;
19095;SDS011;9680;52.520;13.332;2023-08-01T02:59:30;6.25;;;3.00;;
19095;SDS011;9680;52.520;13.332;2023-08-01T03:01:59;7.78;;;2.90;;
19095;SDS011;9680;52.520;13.332;2023-08-01T03:04:27;9.35;;;3.25;;
19095;SDS011;9680;52.520;13.332;2023-08-01T03:06:55;7.53;;;3.20;;
19095;SDS011;9680;52.520;13.332;2023-08-01T03:09:22;4.40;;;2.67;;
19095;SDS011;9680;52.520;13.332;2023-08-01T03:11:48;6.65;;;3.00;;
19095;SDS011;9680;52.520;13.332;2023-08-01T03:14:15;8.32;;;3.05;;
19095;SDS011;9680;52.520;13.332;2023-08-01T03:16:42;11.15;;;3.35;;
19095;SDS011;9680;52.520;13.332;2023-08-01T03:19:09;5.80;;;3.20;;
19095;SDS011;9680;52.520;13.332;2023-08-01T03:21:37;5.88;;;2.67;;
19095;SDS011;9680;52.520;13.332;2023-08-01T03:24:04;7.65;;;2.78;;
19095;SDS011;9680;52.520;13.332;2023-08-01T03:26:34;5.70;;;3.35;;
19095;SDS011;9680;52.520;13.332;2023-08-01T03:29:01;4.13;;;2.85;;
19095;SDS011;9680;52.520;13.332;2023-08-01T03:31:28;5.78;;;2.92;;
19095;SDS011;9680;52.520;13.332;2023-08-01T03:33:55;7.22;;;3.22;;
19095;SDS011;9680;52.520;13.332;2023-08-01T03:36:23;5.80;;;2.78;;
19095;SDS011;9680;52.520;13.332;2023-08-01T03:38:51;8.95;;;3.13;;
19095;SDS011;9680;52.520;13.332;2023-08-01T03:41:18;9.00;;;3.30;;
19095;SDS011;9680;52.520;13.332;2023-08-01T03:43:47;5.43;;;3.08;;
19095;SDS011;9680;52.520;13.332;2023-08-01T03:46:14;9.77;;;3.22;;
19095;SDS011;9680;52.520;13.332;2023-08-01T03:48:40;5.32;;;2.63;;
19095;SDS011;9680;52.520;13.332;2023-08-01T03:51:08;5.15;;;2.83;;
19095;SDS011;9680;52.520;13.332;2023-08-01T03:53:35;4.80;;;3.05;;
19095;SDS011;9680;52.520;13.332;2023-08-01T03:56:03;5.40;;;2.75;;
19095;SDS011;9680;52.520;13.332;2023-08-01T03:58:30;5.07;;;3.00;;
19095;SDS011;9680;52.520;13.332;2023-08-01T04:00:57;5.47;;;2.85;;
19095;SDS011;9680;52.520;13.332;2023-08-01T04:03:25;5.32;;;3.00;;
19095;SDS011;9680;52.520;13.332;2023-08-01T04:05:52;6.88;;;3.08;;
19095;SDS011;9680;52.520;13.332;2023-08-01T04:08:19;6.68;;;3.10;;
19095;SDS011;9680;52.520;13.332;2023-08-01T04:10:46;9.80;;;2.80;;
19095;SDS011;9680;52.520;13.332;2023-08-01T04:13:14;5.07;;;3.00;;
19095;SDS011;9680;52.520;13.332;2023-08-01T04:15:40;5.05;;;2.80;;
19095;SDS011;9680;52.520;13.332;2023-08-01T04:18:07;6.72;;;2.83;;
19095;SDS011;9680;52.520;13.332;2023-08-01T04:20:34;4.45;;;2.67;;
19095;SDS011;9680;52.520;13.332;2023-08-01T04:23:00;5.38;;;2.83;;
19095;SDS011;9680;52.520;13.332;2023-08-01T04:25:27;7.32;;;2.90;;
19095;SDS011;9680;52.520;13.332;2023-08-01T04:27:54;4.72;;;2.42;;
19095;SDS011;9680;52.520;13.332;2023-08-01T04:30:22;3.83;;;2.50;;
19095;SDS011;9680;52.520;13.332;2023-08-01T04:32:48;6.20;;;2.67;;
19095;SDS011;9680;52.520;13.332;2023-08-01T04:35:15;6.07;;;2.65;;
19095;SDS011;9680;52.520;13.332;2023-08-01T04:37:42;4.60;;;2.40;;
19095;SDS011;9680;52.520;13.332;2023-08-01T04:40:09;5.97;;;2.42;;
19095;SDS011;9680;52.520;13.332;2023-08-01T04:42:37;5.03;;;2.40;;
19095;SDS011;9680;52.520;13.332;2023-08-01T04:45:04;3.85;;;2.40;;
19095;SDS011;9680;52.520;13.332;2023-08-01T04:47:33;5.13;;;2.13;;
19095;SDS011;9680;52.520;13.332;2023-08-01T04:50:00;4.80;;;2.28;;
19095;SDS011;9680;52.520;13.332;2023-08-01T04:52:27;4.70;;;2.25;;
19095;SDS011;9680;52.520;13.332;2023-08-01T04:54:53;4.05;;;2.10;;
19095;SDS011;9680;52.520;13.332;2023-08-01T04:57:20;6.20;;;2.20;;
19095;SDS011;9680;52.520;13.332;2023-08-01T04:59:47;4.45;;;2.45;;
19095;SDS011;9680;52.520;13.332;2023-08-01T05:02:14;5.05;;;2.35;;
19095;SDS011;9680;52.520;13.332;2023-08-01T05:04:42;6.15;;;2.60;;
19095;SDS011;9680;52.520;13.332;2023-08-01T05:07:08;4.50;;;2.40;;
19095;SDS011;9680;52.520;13.332;2023-08-01T05:09:35;6.05;;;2.50;;
19095;SDS011;9680;52.520;13.332;2023-08-01T05:12:02;3.85;;;2.20;;
19095;SDS011;9680;52.520;13.332;2023-08-01T05:14:29;4.53;;;2.38;;
19095;SDS011;9680;52.520;13.332;2023-08-01T05:16:56;4.93;;;2.50;;
19095;SDS011;9680;52.520;13.332;2023-08-01T05:19:23;6.05;;;2.50;;
19095;SDS011;9680;52.520;13.332;2023-08-01T05:21:51;7.65;;;2.30;;
19095;SDS011;9680;52.520;13.332;2023-08-01T05:24:17;4.63;;;2.50;;
19095;SDS011;9680;52.520;13.332;2023-08-01T05:26:44;7.65;;;2.65;;
19095;SDS011;9680;52.520;13.332;2023-08-01T05:29:11;4.00;;;2.40;;
19095;SDS011;9680;52.520;13.332;2023-08-01T05:31:38;5.10;;;2.40;;
19095;SDS011;9680;52.520;13.332;2023-08-01T05:34:04;6.68;;;2.65;;
19095;SDS011;9680;52.520;13.332;2023-08-01T05:36:31;7.65;;;2.45;;
19095;SDS011;9680;52.520;13.332;2023-08-01T05:38:59;4.25;;;2.20;;
19095;SDS011;9680;52.520;13.332;2023-08-01T05:41:26;9.48;;;3.83;;
19095;SDS011;9680;52.520;13.332;2023-08-01T05:43:53;8.32;;;2.58;;
19095;SDS011;9680;52.520;13.332;2023-08-01T05:46:19;4.68;;;2.30;;
19095;SDS011;9680;52.520;13.332;2023-08-01T05:48:46;5.22;;;2.35;;
19095;SDS011;9680;52.520;13.332;2023-08-01T05:51:13;5.32;;;2.50;;
19095;SDS011;9680;52.520;13.332;2023-08-01T05:53:40;4.00;;;2.45;;
19095;SDS011;9680;52.520;13.332;2023-08-01T05:56:08;5.93;;;2.28;;
19095;SDS011;9680;52.520;13.332;2023-08-01T05:58:35;4.47;;;2.47;;
19095;SDS011;9680;52.520;13.332;2023-08-01T06:01:02;4.75;;;2.80;;
19095;SDS011;9680;52.520;13.332;2023-08-01T06:03:29;6.28;;;2.70;;
19095;SDS011;9680;52.520;13.332;2023-08-01T06:05:56;5.53;;;2.35;;
19095;SDS011;9680;52.520;13.332;2023-08-01T06:08:22;6.55;;;2.53;;
19095;SDS011;9680;52.520;13.332;2023-08-01T06:10:49;4.95;;;2.50;;
19095;SDS011;9680;52.520;13.332;2023-08-01T06:13:17;5.25;;;2.40;;
19095;SDS011;9680;52.520;13.332;2023-08-01T06:15:44;5.13;;;2.38;;
19095;SDS011;9680;52.520;13.332;2023-08-01T06:18:11;5.10;;;2.50;;
19095;SDS011;9680;52.520;13.332;2023-08-01T06:20:38;7.03;;;2.67;;
19095;SDS011;9680;52.520;13.332;2023-08-01T06:23:05;5.70;;;2.17;;
19095;SDS011;9680;52.520;13.332;2023-08-01T06:25:32;5.53;;;2.50;;
19095;SDS011;9680;52.520;13.332;2023-08-01T06:27:58;4.25;;;2.22;;
19095;SDS011;9680;52.520;13.332;2023-08-01T06:30:27;4.70;;;2.55;;
19095;SDS011;9680;52.520;13.332;2023-08-01T06:32:53;4.47;;;2.40;;
19095;SDS011;9680;52.520;13.332;2023-08-01T06:35:20;10.07;;;2.35;;
19095;SDS011;9680;52.520;13.332;2023-08-01T06:37:48;5.45;;;2.40;;
19095;SDS011;9680;52.520;13.332;2023-08-01T06:40:15;4.63;;;2.10;;
19095;SDS011;9680;52.520;13.332;2023-08-01T06:42:42;5.10;;;2.20;;
19095;SDS011;9680;52.520;13.332;2023-08-01T06:45:09;4.82;;;2.40;;
19095;SDS011;9680;52.520;13.332;2023-08-01T06:47:38;4.82;;;2.15;;
19095;SDS011;9680;52.520;13.332;2023-08-01T06:50:05;5.65;;;2.50;;
19095;SDS011;9680;52.520;13.332;2023-08-01T06:52:32;3.30;;;2.10;;
19095;SDS011;9680;52.520;13.332;2023-08-01T06:54:59;3.92;;;2.33;;
19095;SDS011;9680;52.520;13.332;2023-08-01T06:57:27;7.00;;;2.30;;
19095;SDS011;9680;52.520;13.332;2023-08-01T06:59:55;5.07;;;2.25;;
19095;SDS011;9680;52.520;13.332;2023-08-01T07:02:23;5.80;;;2.30;;
19095;SDS011;9680;52.520;13.332;2023-08-01T07:04:52;3.63;;;2.15;;
19095;SDS011;9680;52.520;13.332;2023-08-01T07:07:19;3.72;;;2.03;;
19095;SDS011;9680;52.520;13.332;2023-08-01T07:09:45;4.57;;;2.20;;
19095;SDS011;9680;52.520;13.332;2023-08-01T07:12:12;4.63;;;2.40;;
19095;SDS011;9680;52.520;13.332;2023-08-01T07:14:39;4.38;;;2.15;;
19095;SDS011;9680;52.520;13.332;2023-08-01T07:17:06;5.43;;;2.13;;
19095;SDS011;9680;52.520;13.332;2023-08-01T07:19:32;4.45;;;2.20;;
19095;SDS011;9680;52.520;13.332;2023-08-01T07:22:01;4.65;;;2.55;;
19095;SDS011;9680;52.520;13.332;2023-08-01T07:24:28;4.93;;;2.13;;
19095;SDS011;9680;52.520;13.332;2023-08-01T07:26:54;5.65;;;2.40;;
19095;SDS011;9680;52.520;13.332;2023-08-01T07:29:21;4.93;;;2.50;;
19095;SDS011;9680;52.520;13.332;2023-08-01T07:31:48;3.42;;;2.10;;
19095;SDS011;9680;52.520;13.332;2023-08-01T07:34:15;5.38;;;2.22;;
19095;SDS011;9680;52.520;13.332;2023-08-01T07:36:41;4.05;;;2.17;;
19095;SDS011;9680;52.520;13.332;2023-08-01T07:39:10;4.10;;;2.30;;
19095;SDS011;9680;52.520;13.332;2023-08-01T07:41:36;4.10;;;2.25;;
19095;SDS011;9680;52.520;13.332;2023-08-01T07:44:03;3.20;;;1.80;;
19095;SDS011;9680;52.520;13.332;2023-08-01T07:46:31;10.07;;;2.97;;
19095;SDS011;9680;52.520;13.332;2023-08-01T07:48:57;7.18;;;2.20;;
19095;SDS011;9680;52.520;13.332;2023-08-01T07:51:25;4.70;;;2.40;;
19095;SDS011;9680;52.520;13.332;2023-08-01T07:53:52;3.95;;;2.15;;
19095;SDS011;9680;52.520;13.332;2023-08-01T07:56:21;4.03;;;2.15;;
19095;SDS011;9680;52.520;13.332;2023-08-01T07:58:48;3.38;;;1.95;;
19095;SDS011;9680;52.520;13.332;2023-08-01T08:01:14;3.17;;;1.70;;
19095;SDS011;9680;52.520;13.332;2023-08-01T08:03:42;4.88;;;2.00;;
19095;SDS011;9680;52.520;13.332;2023-08-01T08:06:08;3.63;;;1.80;;
19095;SDS011;9680;52.520;13.332;2023-08-01T08:08:35;5.03;;;1.70;;
19095;SDS011;9680;52.520;13.332;2023-08-01T08:11:02;3.72;;;1.70;;
19095;SDS011;9680;52.520;13.332;2023-08-01T08:13:30;2.63;;;1.70;;
19095;SDS011;9680;52.520;13.332;2023-08-01T08:15:57;3.03;;;1.92;;
19095;SDS011;9680;52.520;13.332;2023-08-01T08:18:24;3.55;;;1.73;;
19095;SDS011;9680;52.520;13.332;2023-08-01T08:20:51;2.72;;;1.70;;
19095;SDS011;9680;52.520;13.332;2023-08-01T08:23:18;2.75;;;1.65;;
19095;SDS011;9680;52.520;13.332;2023-08-01T08:25:45;3.40;;;1.70;;
19095;SDS011;9680;52.520;13.332;2023-08-01T08:28:12;3.35;;;1.75;;
19095;SDS011;9680;52.520;13.332;2023-08-01T08:30:43;2.13;;;1.50;;
19095;SDS011;9680;52.520;13.332;2023-08-01T08:33:17;2.58;;;1.60;;
19095;SDS011;9680;52.520;13.332;2023-08-01T08:35:46;2.72;;;1.40;;
19095;SDS011;9680;52.520;13.332;2023-08-01T08:38:12;4.00;;;1.55;;
19095;SDS011;9680;52.520;13.332;2023-08-01T08:40:40;4.03;;;1.60;;
19095;SDS011;9680;52.520;13.332;2023-08-01T08:43:10;2.00;;;1.40;;
19095;SDS011;9680;52.520;13.332;2023-08-01T08:45:37;2.25;;;1.30;;
19095;SDS011;9680;52.520;13.332;2023-08-01T08:48:09;2.00;;;1.58;;
19095;SDS011;9680;52.520;13.332;2023-08-01T08:50:41;2.85;;;1.55;;
19095;SDS011;9680;52.520;13.332;2023-08-01T08:53:10;2.22;;;1.45;;
19095;SDS011;9680;52.520;13.332;2023-08-01T08:55:38;3.70;;;1.60;;
19095;SDS011;9680;52.520;13.332;2023-08-01T08:58:05;1.83;;;1.40;;
19095;SDS011;9680;52.520;13.332;2023-08-01T09:00:34;1.23;;;1.00;;
19095;SDS011;9680;52.520;13.332;2023-08-01T09:03:03;2.83;;;1.30;;
19095;SDS011;9680;52.520;13.332;2023-08-01T09:05:34;1.80;;;1.30;;
19095;SDS011;9680;52.520;13.332;2023-08-01T09:08:07;4.15;;;1.50;;
19095;SDS011;9680;52.520;13.332;2023-08-01T09:10:41;1.85;;;1.10;;
19095;SDS011;9680;52.520;13.332;2023-08-01T09:13:08;2.30;;;1.25;;
19095;SDS011;9680;52.520;13.332;2023-08-01T09:15:35;2.15;;;1.38;;
19095;SDS011;9680;52.520;13.332;2023-08-01T09:18:06;2.45;;;1.40;;
19095;SDS011;9680;52.520;13.332;2023-08-01T09:20:39;2.30;;;1.48;;
19095;SDS011;9680;52.520;13.332;2023-08-01T09:23:08;1.73;;;1.20;;
19095;SDS011;9680;52.520;13.332;2023-08-01T09:25:36;2.40;;;1.10;;
19095;SDS011;9680;52.520;13.332;2023-08-01T09:28:03;3.95;;;1.20;;
19095;SDS011;9680;52.520;13.332;2023-08-01T09:30:45;1.85;;;1.20;;
19095;SDS011;9680;52.520;13.332;2023-08-01T09:33:16;1.10;;;0.98;;
19095;SDS011;9680;52.520;13.332;2023-08-01T09:35:43;2.75;;;1.10;;
19095;SDS011;9680;52.520;13.332;2023-08-01T09:38:14;1.85;;;0.80;;
19095;SDS011;9680;52.520;13.332;2023-08-01T09:40:42;1.75;;;1.00;;
19095;SDS011;9680;52.520;13.332;2023-08-01T09:43:09;1.65;;;1.50;;
19095;SDS011;9680;52.520;13.332;2023-08-01T09:45:36;1.23;;;0.95;;
19095;SDS011;9680;52.520;13.332;2023-08-01T09:48:03;1.20;;;1.00;;
19095;SDS011;9680;52.520;13.332;2023-08-01T09:50:32;2.30;;;1.23;;
19095;SDS011;9680;52.520;13.332;2023-08-01T09:53:08;1.33;;;1.00;;
19095;SDS011;9680;52.520;13.332;2023-08-01T09:55:35;1.50;;;1.08;;
19095;SDS011;9680;52.520;13.332;2023-08-01T09:58:03;2.65;;;1.23;;
19095;SDS011;9680;52.520;13.332;2023-08-01T10:00:31;2.25;;;1.20;;
19095;SDS011;9680;52.520;13.332;2023-08-01T10:02:58;1.50;;;1.13;;
19095;SDS011;9680;52.520;13.332;2023-08-01T10:05:26;1.70;;;1.02;;
19095;SDS011;9680;52.520;13.332;2023-08-01T10:07:58;1.30;;;0.90;;
19095;SDS011;9680;52.520;13.332;2023-08-01T10:10:26;1.73;;;0.90;;
19095;SDS011;9680;52.520;13.332;2023-08-01T10:12:53;1.20;;;0.80;;
19095;SDS011;9680;52.520;13.332;2023-08-01T10:15:21;1.38;;;0.80;;
19095;SDS011;9680;52.520;13.332;2023-08-01T10:17:48;2.97;;;0.80;;
19095;SDS011;9680;52.520;13.332;2023-08-01T10:20:15;1.63;;;0.90;;
19095;SDS011;9680;52.520;13.332;2023-08-01T10:22:43;1.80;;;0.80;;
19095;SDS011;9680;52.520;13.332;2023-08-01T10:25:12;2.70;;;0.98;;
19095;SDS011;9680;52.520;13.332;2023-08-01T10:27:39;1.40;;;0.90;;
19095;SDS011;9680;52.520;13.332;2023-08-01T10:30:06;1.50;;;1.10;;
19095;SDS011;9680;52.520;13.332;2023-08-01T10:32:36;1.00;;;0.80;;
19095;SDS011;9680;52.520;13.332;2023-08-01T10:35:04;1.40;;;0.80;;
19095;SDS011;9680;52.520;13.332;2023-08-01T10:37:38;3.35;;;1.30;;
19095;SDS011;9680;52.520;13.332;2023-08-01T10:40:07;5.95;;;1.60;;
19095;SDS011;9680;52.520;13.332;2023-08-01T10:42:39;3.78;;;1.30;;
19095;SDS011;9680;52.520;13.332;2023-08-01T10:45:08;5.57;;;1.25;;
19095;SDS011;9680;52.520;13.332;2023-08-01T10:48:09;2.03;;;1.00;;
19095;SDS011;9680;52.520;13.332;2023-08-01T10:50:37;2.33;;;1.08;;
19095;SDS011;9680;52.520;13.332;2023-08-01T10:53:06;2.85;;;1.00;;
19095;SDS011;9680;52.520;13.332;2023-08-01T10:55:40;1.95;;;0.90;;
19095;SDS011;9680;52.520;13.332;2023-08-01T10:58:10;1.77;;;0.98;;
19095;SDS011;9680;52.520;13.332;2023-08-01T11:00:37;3.33;;;1.05;;
19095;SDS011;9680;52.520;13.332;2023-08-01T11:03:04;1.50;;;0.98;;
19095;SDS011;9680;52.520;13.332;2023-08-01T11:05:31;3.75;;;1.08;;
19095;SDS011;9680;52.520;13.332;2023-08-01T11:07:58;5.45;;;1.58;;
19095;SDS011;9680;52.520;13.332;2023-08-01T11:10:27;2.15;;;1.20;;
19095;SDS011;9680;52.520;13.332;2023-08-01T11:12:55;3.05;;;0.90;;
19095;SDS011;9680;52.520;13.332;2023-08-01T11:15:24;0.90;;;0.68;;
19095;SDS011;9680;52.520;13.332;2023-08-01T11:17:52;0.95;;;0.60;;
19095;SDS011;9680;52.520;13.332;2023-08-01T11:20:21;1.20;;;0.80;;
19095;SDS011;9680;52.520;13.332;2023-08-01T11:22:50;1.65;;;0.85;;
19095;SDS011;9680;52.520;13.332;2023-08-01T11:25:18;1.90;;;1.10;;
19095;SDS011;9680;52.520;13.332;2023-08-01T11:27:47;6.10;;;1.35;;
19095;SDS011;9680;52.520;13.332;2023-08-01T11:30:13;2.47;;;1.00;;
19095;SDS011;9680;52.520;13.332;2023-08-01T11:32:42;7.65;;;1.10;;
19095;SDS011;9680;52.520;13.332;2023-08-01T11:35:08;3.08;;;1.67;;
19095;SDS011;9680;52.520;13.332;2023-08-01T11:37:44;3.63;;;1.25;;
19095;SDS011;9680;52.520;13.332;2023-08-01T11:40:12;3.58;;;1.80;;
19095;SDS011;9680;52.520;13.332;2023-08-01T11:42:39;6.13;;;2.03;;
19095;SDS011;9680;52.520;13.332;2023-08-01T11:45:09;4.22;;;2.10;;
19095;SDS011;9680;52.520;13.332;2023-08-01T11:47:37;7.57;;;2.22;;
19095;SDS011;9680;52.520;13.332;2023-08-01T11:50:12;5.07;;;2.28;;
19095;SDS011;9680;52.520;13.332;2023-08-01T11:52:39;4.40;;;2.60;;
19095;SDS011;9680;52.520;13.332;2023-08-01T11:55:07;4.55;;;2.38;;
19095;SDS011;9680;52.520;13.332;2023-08-01T11:57:50;4.78;;;2.53;;
19095;SDS011;9680;52.520;13.332;2023-08-01T12:00:20;3.60;;;2.33;;
19095;SDS011;9680;52.520;13.332;2023-08-01T12:02:47;4.22;;;2.38;;
19095;SDS011;9680;52.520;13.332;2023-08-01T12:05:22;4.90;;;2.30;;
19095;SDS011;9680;52.520;13.332;2023-08-01T12:07:49;4.30;;;2.25;;
19095;SDS011;9680;52.520;13.332;2023-08-01T12:10:16;3.95;;;2.20;;
19095;SDS011;9680;52.520;13.332;2023-08-01T12:12:43;4.68;;;2.17;;
19095;SDS011;9680;52.520;13.332;2023-08-01T12:15:11;3.38;;;2.20;;
19095;SDS011;9680;52.520;13.332;2023-08-01T12:17:40;5.57;;;2.35;;
19095;SDS011;9680;52.520;13.332;2023-08-01T12:20:07;5.25;;;2.40;;
19095;SDS011;9680;52.520;13.332;2023-08-01T12:22:38;4.93;;;2.30;;
19095;SDS011;9680;52.520;13.332;2023-08-01T12:25:06;4.53;;;2.50;;
19095;SDS011;9680;52.520;13.332;2023-08-01T12:27:33;3.88;;;2.10;;
19095;SDS011;9680;52.520;13.332;2023-08-01T12:30:00;5.35;;;2.67;;
19095;SDS011;9680;52.520;13.332;2023-08-01T12:32:27;5.00;;;2.55;;
19095;SDS011;9680;52.520;13.332;2023-08-01T12:34:54;7.30;;;2.53;;
19095;SDS011;9680;52.520;13.332;2023-08-01T12:37:20;7.78;;;4.55;;
19095;SDS011;9680;52.520;13.332;2023-08-01T12:39:48;6.43;;;2.88;;
19095;SDS011;9680;52.520;13.332;2023-08-01T12:42:15;11.60;;;2.53;;
19095;SDS011;9680;52.520;13.332;2023-08-01T12:44:42;5.57;;;2.95;;
19095;SDS011;9680;52.520;13.332;2023-08-01T12:47:09;4.15;;;2.40;;
19095;SDS011;9680;52.520;13.332;2023-08-01T12:49:36;5.40;;;2.67;;
19095;SDS011;9680;52.520;13.332;2023-08-01T12:52:03;3.60;;;2.35;;
19095;SDS011;9680;52.520;13.332;2023-08-01T12:54:30;5.32;;;2.80;;
19095;SDS011;9680;52.520;13.332;2023-08-01T12:56:58;6.03;;;2.60;;
19095;SDS011;9680;52.520;13.332;2023-08-01T12:59:25;5.03;;;2.60;;
19095;SDS011;9680;52.520;13.332;2023-08-01T13:01:53;3.67;;;2.45;;
19095;SDS011;9680;52.520;13.332;2023-08-01T13:04:20;4.90;;;2.70;;
19095;SDS011;9680;52.520;13.332;2023-08-01T13:06:46;6.72;;;2.80;;
19095;SDS011;9680;52.520;13.332;2023-08-01T13:09:13;5.03;;;2.22;;
19095;SDS011;9680;52.520;13.332;2023-08-01T13:11:40;5.30;;;2.60;;
19095;SDS011;9680;52.520;13.332;2023-08-01T13:14:10;4.88;;;2.53;;
19095;SDS011;9680;52.520;13.332;2023-08-01T13:16:36;3.95;;;2.28;;
19095;SDS011;9680;52.520;13.332;2023-08-01T13:19:03;5.25;;;2.38;;
19095;SDS011;9680;52.520;13.332;2023-08-01T13:21:31;3.97;;;2.47;;
19095;SDS011;9680;52.520;13.332;2023-08-01T13:23:59;5.75;;;2.58;;
19095;SDS011;9680;52.520;13.332;2023-08-01T13:26:29;4.43;;;2.50;;
19095;SDS011;9680;52.520;13.332;2023-08-01T13:28:56;6.70;;;2.72;;
19095;SDS011;9680;52.520;13.332;2023-08-01T13:31:24;4.65;;;2.75;;
19095;SDS011;9680;52.520;13.332;2023-08-01T13:33:51;4.93;;;2.63;;
19095;SDS011;9680;52.520;13.332;2023-08-01T13:36:18;4.03;;;2.45;;
19095;SDS011;9680;52.520;13.332;2023-08-01T13:38:45;4.78;;;2.47;;
19095;SDS011;9680;52.520;13.332;2023-08-01T13:41:13;4.40;;;2.38;;
19095;SDS011;9680;52.520;13.332;2023-08-01T13:43:40;3.60;;;2.40;;
19095;SDS011;9680;52.520;13.332;2023-08-01T13:46:11;7.47;;;2.50;;
19095;SDS011;9680;52.520;13.332;2023-08-01T13:48:41;5.80;;;2.70;;
19095;SDS011;9680;52.520;13.332;2023-08-01T13:51:07;6.13;;;2.30;;
19095;SDS011;9680;52.520;13.332;2023-08-01T13:53:35;6.35;;;2.30;;
19095;SDS011;9680;52.520;13.332;2023-08-01T13:56:05;4.30;;;2.33;;
19095;SDS011;9680;52.520;13.332;2023-08-01T13:58:32;5.78;;;2.22;;
19095;SDS011;9680;52.520;13.332;2023-08-01T14:01:01;5.00;;;2.40;;
19095;SDS011;9680;52.520;13.332;2023-08-01T14:03:28;3.28;;;2.10;;
19095;SDS011;9680;52.520;13.332;2023-08-01T14:05:56;3.25;;;1.95;;
19095;SDS011;9680;52.520;13.332;2023-08-01T14:08:29;6.57;;;2.53;;
19095;SDS011;9680;52.520;13.332;2023-08-01T14:10:56;6.55;;;2.53;;
19095;SDS011;9680;52.520;13.332;2023-08-01T14:13:22;5.13;;;2.20;;
19095;SDS011;9680;52.520;13.332;2023-08-01T14:15:49;4.20;;;2.35;;
19095;SDS011;9680;52.520;13.332;2023-08-01T14:18:16;5.43;;;2.10;;
19095;SDS011;9680;52.520;13.332;2023-08-01T14:20:43;4.15;;;2.30;;
19095;SDS011;9680;52.520;13.332;2023-08-01T14:23:11;3.95;;;2.20;;
19095;SDS011;9680;52.520;13.332;2023-08-01T14:25:38;4.43;;;2.40;;
19095;SDS011;9680;52.520;13.332;2023-08-01T14:28:05;4.90;;;2.35;;
19095;SDS011;9680;52.520;13.332;2023-08-01T14:30:32;6.45;;;2.20;;
19095;SDS011;9680;52.520;13.332;2023-08-01T14:32:59;4.20;;;2.05;;
19095;SDS011;9680;52.520;13.332;2023-08-01T14:35:26;3.65;;;2.00;;
19095;SDS011;9680;52.520;13.332;2023-08-01T14:37:53;5.90;;;2.35;;
19095;SDS011;9680;52.520;13.332;2023-08-01T14:40:21;6.50;;;2.28;;
19095;SDS011;9680;52.520;13.332;2023-08-01T14:42:48;5.90;;;2.20;;
19095;SDS011;9680;52.520;13.332;2023-08-01T14:45:15;5.07;;;2.17;;
19095;SDS011;9680;52.520;13.332;2023-08-01T14:47:42;5.15;;;1.90;;
19095;SDS011;9680;52.520;13.332;2023-08-01T14:50:09;5.00;;;2.03;;